Muscatine, IA (52761)

5:52 AM CDT on July 30, 2014 (GMT -0500)
MesoWest I-92 @ Muscatine/Mississippi Riv IL US ILDOT (MIL013) Elev 534 ft | 41.42 °N, 91.03 °W | Change Station

Current weather conditions updated 15 days ago

Clear
Clear
59 °F
Feels Like 59 °F
N
3
Wind Variable Wind from WNW
Gusts 3 mph

Today is forecast to be Much Warmer than yesterday.

Today
High -- | Low -- °F
--% Chance of Precip.
Yesterday
High -- | Low -- °F
Precip. -- in
5:56 AM 8:23 PM
Waxing Crescent, 11% visible
Pressure 30.06 in
Visibility 10.0 miles
Clouds Clear
Dew Point 57 °F
Humidity 94%
Rainfall -999.00 in
Snow Depth Not available.
UV 0 out of 12
Pollen 6.50 out of 12
Air Quality Not available.
Flu Activity Not available.
METAR KMUT 301035Z AUTO 22003KT 10SM CLR 14/13 A3006 RMK AO2

More Conditions Fewer Conditions

Pressure 30.06 in
Visibility 10.0 miles
Clouds Clear
Dew Point 57 °F
Humidity 94%
Rainfall -999.00 in
Snow Depth Not available.
UV 0 out of 12
Pollen 6.50 out of 12
Air Quality Not available.
Flu Activity Not available.
METAR KMUT 301035Z AUTO 22003KT 10SM CLR 14/13 A3006 RMK AO2

More Conditions Fewer Conditions

10-Day Weather Forecast

Almanac

Astronomy

Jul. 30, 2014 Rise Set
Actual Time 5:56 AM CDT 8:23 PM CDT
Civil Twilight 5:25 AM CDT 8:54 PM CDT
Nautical Twilight 4:46 AM CDT 9:33 PM CDT
Astronomical Twilight 4:02 AM CDT 10:16 PM CDT
Moon 9:31 AM CDT 10:02 PM CDT
Length of Visible Light 15h 28m
Length of Day
14h 26m
Tomorrow will be 2m 3s shorter.
Waxing Crescent, 11% of the Moon is Illuminated
Today
Waxing Crescent
Aug 3
First Quarter
Aug 10
Full
Aug 17
Last Quarter
Aug 25
New

Today's Extremes

State Highs State Lows

Community

WunderPhotos

Upload Photos

1,739,037 photos uploaded!

WunderBlogs® & News

Nearby

Snow Depth

Station Depth Elevation
No new snow has been reported.

Earthquake Activity

City Distance Mag. Time & Date
No recent earthquake activity has been reported nearby.
Minimum magnitude displayed is 2.5.

Coastal Water Temperatures

Place Temperature
No Stations Reporting

Nearby Weather Stations

Station Location Temp. Dew Point Humidity Wind Precip. Elev Updated Type
Aledo, IL 60.4 °F 54 °F 78% West  at  0.0 mph 0.00 in / hr 735 ft 5:52 AM CDT Rapid Fire
West Central Davenport, Davenport, IA 59.7 °F 54 °F 81% North  at  0.0 mph 0.00 in / hr 704 ft 5:52 AM CDT Rapid Fire
Milan, IL 56.6 °F 53 °F 88% SW  at  0.0 mph 0.00 in / hr 653 ft 5:51 AM CDT Normal
East Central Davenport, Davenport, IA 58.8 °F 57 °F 93% NW  at  0.0 mph 0.00 in / hr 692 ft 5:52 AM CDT Rapid Fire

Show More Stations Show Fewer Stations